createdAt,value
2017-07-24T00:01:42.009Z,18.90
2017-07-24T00:04:09.556Z,18.80
2017-07-24T00:06:37.897Z,18.60
2017-07-24T00:09:05.450Z,18.60
2017-07-24T00:11:32.997Z,18.50
2017-07-24T00:14:00.609Z,18.50
2017-07-24T00:16:31.065Z,18.40
2017-07-24T00:18:58.617Z,18.40
2017-07-24T00:21:26.194Z,18.40
2017-07-24T00:23:53.746Z,18.30
2017-07-24T00:26:21.301Z,18.40
2017-07-24T00:28:48.869Z,18.40
2017-07-24T00:31:16.409Z,18.30
2017-07-24T00:33:43.957Z,18.30
2017-07-24T00:36:12.605Z,18.40
2017-07-24T00:38:40.149Z,18.40
2017-07-24T00:41:07.710Z,18.40
2017-07-24T00:43:35.285Z,18.50
2017-07-24T00:46:02.832Z,18.50
2017-07-24T00:48:30.378Z,18.40
2017-07-24T00:50:57.961Z,18.30
2017-07-24T00:53:25.513Z,18.30
2017-07-24T00:55:53.057Z,18.30
2017-07-24T00:58:20.833Z,18.30
2017-07-24T01:00:48.382Z,18.30
2017-07-24T01:03:16.229Z,18.40
2017-07-24T01:05:43.809Z,18.40
2017-07-24T01:08:11.352Z,18.40
2017-07-24T01:10:38.901Z,18.40
2017-07-24T01:13:07.257Z,18.30
2017-07-24T01:15:34.801Z,18.30
2017-07-24T01:18:02.341Z,18.40
2017-07-24T01:20:29.949Z,18.50
2017-07-24T01:22:58.265Z,18.50
2017-07-24T01:25:25.808Z,18.40
2017-07-24T01:27:53.385Z,18.40
2017-07-24T01:30:20.924Z,18.40
2017-07-24T01:32:48.496Z,18.40
2017-07-24T01:35:16.072Z,18.20
2017-07-24T01:37:43.620Z,18.10
2017-07-24T01:40:11.165Z,18.20
2017-07-24T01:42:39.060Z,18.20
2017-07-24T01:45:06.609Z,18.20
2017-07-24T01:47:34.152Z,18.20
2017-07-24T01:50:01.739Z,18.20
2017-07-24T01:52:29.289Z,18.20
2017-07-24T01:54:56.842Z,18.30
2017-07-24T01:57:24.424Z,18.30
2017-07-24T01:59:51.968Z,18.20
2017-07-24T02:02:19.512Z,18.20
2017-07-24T02:04:47.592Z,18.20
2017-07-24T02:07:15.142Z,18.10
2017-07-24T02:09:42.692Z,18.00
2017-07-24T02:12:10.261Z,17.90
2017-07-24T02:14:37.822Z,17.90
2017-07-24T02:17:05.377Z,17.80
2017-07-24T02:19:32.969Z,17.70
2017-07-24T02:22:00.514Z,17.70
2017-07-24T02:24:28.061Z,17.50
2017-07-24T02:26:55.673Z,17.50
2017-07-24T02:29:23.213Z,17.50
2017-07-24T02:31:50.763Z,17.60
2017-07-24T02:34:18.333Z,17.70
2017-07-24T02:36:45.890Z,17.70
2017-07-24T02:39:13.442Z,17.70
2017-07-24T02:41:41.037Z,17.70
2017-07-24T02:44:08.586Z,17.70
2017-07-24T02:46:36.130Z,17.70
2017-07-24T02:49:03.784Z,17.80
2017-07-24T02:51:31.333Z,17.80
2017-07-24T02:53:58.881Z,17.80
2017-07-24T02:56:26.452Z,17.80
2017-07-24T02:58:54.000Z,17.80
2017-07-24T03:01:21.557Z,17.80
2017-07-24T03:03:49.140Z,17.80
2017-07-24T03:06:16.885Z,17.80
2017-07-24T03:08:44.434Z,17.70
2017-07-24T03:11:12.828Z,17.60
2017-07-24T03:13:40.381Z,17.60
2017-07-24T03:16:07.933Z,17.60
2017-07-24T03:18:35.509Z,17.50
2017-07-24T03:21:03.061Z,17.50
2017-07-24T03:23:30.613Z,17.50
2017-07-24T03:25:58.185Z,17.50
2017-07-24T03:28:25.733Z,17.50
2017-07-24T03:30:53.290Z,17.50
2017-07-24T03:33:20.909Z,17.50
2017-07-24T03:35:48.461Z,17.50
2017-07-24T03:38:16.005Z,17.50
2017-07-24T03:40:43.582Z,17.50
2017-07-24T03:43:11.133Z,17.50
2017-07-24T03:45:38.677Z,17.50
2017-07-24T03:48:06.261Z,17.50
2017-07-24T03:50:33.804Z,17.60
2017-07-24T03:53:01.358Z,17.70
2017-07-24T03:55:29.015Z,17.70
2017-07-24T03:57:56.565Z,17.80
2017-07-24T04:00:24.113Z,17.80
2017-07-24T04:02:52.448Z,17.80
2017-07-24T04:05:19.994Z,17.80
2017-07-24T04:07:47.919Z,17.70
2017-07-24T04:10:15.520Z,17.80
2017-07-24T04:12:44.721Z,17.80
2017-07-24T04:15:12.274Z,17.80
2017-07-24T04:17:39.880Z,17.70
2017-07-24T04:20:07.425Z,17.60
2017-07-24T04:22:34.972Z,17.50
2017-07-24T04:25:02.541Z,17.30
2017-07-24T04:27:30.091Z,17.20
2017-07-24T04:29:57.638Z,17.20
2017-07-24T04:32:25.216Z,17.10
2017-07-24T04:34:52.770Z,17.00
2017-07-24T04:37:20.321Z,16.90
2017-07-24T04:39:47.972Z,16.90
2017-07-24T04:42:15.513Z,16.80
2017-07-24T04:44:43.065Z,16.80
2017-07-24T04:47:10.641Z,16.70
2017-07-24T04:49:38.211Z,16.70
2017-07-24T04:52:05.768Z,16.70
2017-07-24T04:54:33.353Z,16.70
2017-07-24T04:57:00.903Z,16.70
2017-07-24T04:59:28.448Z,16.70
2017-07-24T05:01:56.360Z,16.70
2017-07-24T05:04:24.354Z,16.80
2017-07-24T05:06:51.908Z,16.70
2017-07-24T05:09:20.593Z,16.80
2017-07-24T05:11:48.156Z,16.80
2017-07-24T05:14:15.697Z,16.90
2017-07-24T05:16:43.273Z,16.90
2017-07-24T05:19:11.595Z,17.10
2017-07-24T05:21:39.141Z,17.10
2017-07-24T05:24:06.985Z,17.10
2017-07-24T05:26:34.534Z,17.20
2017-07-24T05:29:02.076Z,17.30
2017-07-24T05:31:29.673Z,17.40
2017-07-24T05:33:57.221Z,17.40
2017-07-24T05:36:24.768Z,17.50
2017-07-24T05:38:52.341Z,17.50
2017-07-24T05:41:19.880Z,17.60
2017-07-24T05:43:47.478Z,17.70
2017-07-24T05:46:15.085Z,17.70
2017-07-24T05:48:42.639Z,17.70
2017-07-24T05:51:10.180Z,17.80
2017-07-24T05:53:37.763Z,17.90
2017-07-24T05:56:05.304Z,18.00
2017-07-24T05:58:32.854Z,18.00
2017-07-24T06:01:00.433Z,18.00
2017-07-24T06:03:27.976Z,18.10
2017-07-24T06:05:56.290Z,18.00
2017-07-24T06:08:23.947Z,18.00
2017-07-24T06:10:54.696Z,18.10
2017-07-24T06:13:22.246Z,18.20
2017-07-24T06:15:49.825Z,18.20
2017-07-24T06:18:17.380Z,18.30
2017-07-24T06:20:44.921Z,18.40
2017-07-24T06:23:12.493Z,18.60
2017-07-24T06:25:40.045Z,18.70
2017-07-24T06:28:07.589Z,18.70
2017-07-24T06:30:35.252Z,18.70
2017-07-24T06:33:02.805Z,18.80
2017-07-24T06:35:30.352Z,18.70
2017-07-24T06:37:57.925Z,18.60
2017-07-24T06:40:25.467Z,18.60
2017-07-24T06:42:53.018Z,18.50
2017-07-24T06:45:20.607Z,18.50
2017-07-24T06:47:48.153Z,18.40
2017-07-24T06:50:15.697Z,18.40
2017-07-24T06:52:43.313Z,18.30
2017-07-24T06:55:10.866Z,18.30
2017-07-24T06:57:38.417Z,18.30
2017-07-24T07:00:06.003Z,18.30
2017-07-24T07:02:33.549Z,18.30
2017-07-24T07:05:01.101Z,18.30
2017-07-24T07:07:28.811Z,18.30
2017-07-24T07:09:56.365Z,18.30
2017-07-24T07:12:24.701Z,18.30
2017-07-24T07:14:52.354Z,18.40
2017-07-24T07:17:19.906Z,18.40
2017-07-24T07:19:47.455Z,18.40
2017-07-24T07:22:15.796Z,18.40
2017-07-24T07:24:43.341Z,18.40
2017-07-24T07:27:10.897Z,18.50
2017-07-24T07:29:38.470Z,18.50
2017-07-24T07:32:06.021Z,18.50
2017-07-24T07:34:33.577Z,18.60
2017-07-24T07:37:01.234Z,18.60
2017-07-24T07:39:28.786Z,18.60
2017-07-24T07:41:56.344Z,18.60
2017-07-24T07:44:23.926Z,18.80
2017-07-24T07:46:51.474Z,18.90
2017-07-24T07:49:19.033Z,18.90
2017-07-24T07:51:46.608Z,18.90
2017-07-24T07:54:14.154Z,18.80
2017-07-24T07:56:41.921Z,18.80
2017-07-24T07:59:09.620Z,18.80
2017-07-24T08:01:37.169Z,18.90
2017-07-24T08:04:04.712Z,19.00
2017-07-24T08:06:32.284Z,19.00
2017-07-24T08:08:59.842Z,19.10
2017-07-24T08:11:27.433Z,19.00
2017-07-24T08:13:56.073Z,18.90
2017-07-24T08:16:23.622Z,18.90
2017-07-24T08:18:51.169Z,18.80
2017-07-24T08:21:18.837Z,18.80
2017-07-24T08:23:46.384Z,18.80
2017-07-24T08:26:13.933Z,18.90
2017-07-24T08:28:41.510Z,18.90
2017-07-24T08:31:09.057Z,18.90
2017-07-24T08:33:36.605Z,19.00
2017-07-24T08:36:04.224Z,19.20
2017-07-24T08:38:31.813Z,19.40
2017-07-24T08:40:59.357Z,19.60
2017-07-24T08:43:26.985Z,19.80
2017-07-24T08:45:54.575Z,19.80
2017-07-24T08:48:22.153Z,19.90
2017-07-24T08:50:49.750Z,19.90
2017-07-24T08:53:17.321Z,19.90
2017-07-24T08:55:44.874Z,20.00
2017-07-24T08:58:12.518Z,20.00
2017-07-24T09:00:40.085Z,20.00
2017-07-24T09:03:07.646Z,19.90
2017-07-24T09:05:35.261Z,19.70
2017-07-24T09:08:02.905Z,19.60
2017-07-24T09:10:30.457Z,19.40
2017-07-24T09:12:58.270Z,18.90
2017-07-24T09:15:26.233Z,18.60
2017-07-24T09:17:53.860Z,18.60
2017-07-24T09:20:21.490Z,18.60
2017-07-24T09:22:49.071Z,18.50
2017-07-24T09:25:16.634Z,18.40
2017-07-24T09:27:44.330Z,18.40
2017-07-24T09:30:11.881Z,18.50
2017-07-24T09:32:39.434Z,18.50
2017-07-24T09:35:07.014Z,18.50
2017-07-24T09:37:34.569Z,18.50
2017-07-24T09:40:02.217Z,18.40
2017-07-24T09:42:29.793Z,18.50
2017-07-24T09:44:57.376Z,18.50
2017-07-24T09:47:24.925Z,18.50
2017-07-24T09:49:52.645Z,18.60
2017-07-24T09:52:20.193Z,18.80
2017-07-24T09:54:47.798Z,18.80
2017-07-24T09:57:15.394Z,18.90
2017-07-24T09:59:42.958Z,19.00
2017-07-24T10:02:10.698Z,18.90
2017-07-24T10:04:38.276Z,19.00
2017-07-24T10:07:05.865Z,19.00
2017-07-24T10:09:33.432Z,19.20
2017-07-24T10:12:01.080Z,19.20
2017-07-24T10:14:28.625Z,19.20
2017-07-24T10:16:56.906Z,19.00
2017-07-24T10:19:24.498Z,19.00
2017-07-24T10:21:52.058Z,19.00
2017-07-24T10:24:19.614Z,19.00
2017-07-24T10:26:47.198Z,19.00
2017-07-24T10:29:14.749Z,19.10
2017-07-24T10:31:42.467Z,19.20
2017-07-24T10:34:10.277Z,19.30
2017-07-24T10:36:37.824Z,19.20
2017-07-24T10:39:05.370Z,19.20
2017-07-24T10:41:32.941Z,19.20
2017-07-24T10:44:01.746Z,19.20
2017-07-24T10:46:31.037Z,19.20
2017-07-24T10:48:58.637Z,19.30
2017-07-24T10:51:26.932Z,19.30
2017-07-24T10:53:55.254Z,19.50
2017-07-24T10:56:25.910Z,19.50
2017-07-24T10:58:53.577Z,19.60
2017-07-24T11:01:24.542Z,19.60
2017-07-24T11:03:52.139Z,19.60
2017-07-24T11:06:19.706Z,19.60
2017-07-24T11:08:47.262Z,19.50
2017-07-24T11:11:14.830Z,19.50
2017-07-24T11:13:42.371Z,19.30
2017-07-24T11:16:09.914Z,19.30
2017-07-24T11:18:38.093Z,19.40
2017-07-24T11:21:05.749Z,19.30
2017-07-24T11:23:33.297Z,19.30
2017-07-24T11:26:00.881Z,19.30
2017-07-24T11:28:28.413Z,19.20
2017-07-24T11:30:55.969Z,19.20
2017-07-24T11:33:23.549Z,19.10
2017-07-24T11:35:51.097Z,19.20
2017-07-24T11:38:18.641Z,19.20
2017-07-24T11:40:46.325Z,19.00
2017-07-24T11:43:13.873Z,19.00
2017-07-24T11:45:41.430Z,19.10
2017-07-24T11:48:09.775Z,19.20
2017-07-24T11:50:37.312Z,19.20
2017-07-24T11:53:04.852Z,19.30
2017-07-24T11:55:32.426Z,19.20
2017-07-24T11:57:59.977Z,19.10
2017-07-24T12:00:27.526Z,18.90
2017-07-24T12:02:55.146Z,18.80
2017-07-24T12:05:22.684Z,18.80
2017-07-24T12:07:50.226Z,18.60
2017-07-24T12:10:19.172Z,18.60
2017-07-24T12:12:49.022Z,18.80
2017-07-24T12:15:16.689Z,18.90
2017-07-24T12:17:47.082Z,18.90
2017-07-24T12:20:14.972Z,18.90
2017-07-24T12:22:42.540Z,19.00
2017-07-24T12:25:10.227Z,19.00
2017-07-24T12:27:37.774Z,19.00
2017-07-24T12:30:05.323Z,19.00
2017-07-24T12:32:32.902Z,19.10
2017-07-24T12:35:00.445Z,19.20
2017-07-24T12:37:27.990Z,19.10
2017-07-24T12:39:55.570Z,19.20
2017-07-24T12:42:23.119Z,19.10
2017-07-24T12:44:50.665Z,19.10
2017-07-24T12:47:22.497Z,19.10
2017-07-24T12:49:50.061Z,19.10
2017-07-24T12:52:17.630Z,19.30
2017-07-24T12:54:45.579Z,19.30
2017-07-24T12:57:13.422Z,19.40
2017-07-24T12:59:40.993Z,19.40
2017-07-24T13:02:08.585Z,19.20
2017-07-24T13:04:36.917Z,19.30
2017-07-24T13:07:04.476Z,19.20
2017-07-24T13:09:32.280Z,19.10
2017-07-24T13:11:59.850Z,19.00
2017-07-24T13:14:27.458Z,19.00
2017-07-24T13:16:55.058Z,18.90
2017-07-24T13:19:23.406Z,18.80
2017-07-24T13:21:53.127Z,18.60
2017-07-24T13:24:21.022Z,18.50
2017-07-24T13:26:48.591Z,17.70
2017-07-24T13:29:16.196Z,17.10
2017-07-24T13:31:43.831Z,16.40
2017-07-24T13:34:12.225Z,16.30
2017-07-24T13:36:39.773Z,16.20
2017-07-24T13:39:07.344Z,16.10
2017-07-24T13:41:50.726Z,16.10
2017-07-24T13:44:20.413Z,15.90
2017-07-24T13:46:47.970Z,15.90
2017-07-24T13:49:15.522Z,15.70
2017-07-24T13:51:43.406Z,15.60
2017-07-24T13:54:10.962Z,15.70
2017-07-24T13:56:38.515Z,15.70
2017-07-24T13:59:06.090Z,15.70
2017-07-24T14:01:33.633Z,15.70
2017-07-24T14:04:02.361Z,15.80
2017-07-24T14:06:30.716Z,15.90
2017-07-24T14:09:00.221Z,15.90
2017-07-24T14:14:20.622Z,16.00
2017-07-24T14:16:48.170Z,16.00
2017-07-24T14:19:15.762Z,15.90
2017-07-24T14:21:43.336Z,15.80
2017-07-24T14:24:11.191Z,15.90
2017-07-24T14:26:38.745Z,16.00
2017-07-24T14:29:06.333Z,16.20
2017-07-24T14:31:33.877Z,16.20
2017-07-24T14:34:01.425Z,16.30
2017-07-24T14:36:29.047Z,16.30
2017-07-24T14:38:56.585Z,16.40
2017-07-24T14:41:24.140Z,16.30
2017-07-24T14:43:52.055Z,16.40
2017-07-24T14:46:19.689Z,16.50
2017-07-24T14:48:47.237Z,16.40
2017-07-24T14:51:14.826Z,16.40
2017-07-24T14:53:42.369Z,16.40
2017-07-24T14:56:10.419Z,16.30
2017-07-24T14:58:38.088Z,16.30
2017-07-24T15:01:05.638Z,16.40
2017-07-24T15:03:33.189Z,16.50
2017-07-24T15:06:00.765Z,16.40
2017-07-24T15:08:31.009Z,16.40
2017-07-24T15:10:58.545Z,16.50
2017-07-24T15:13:26.131Z,16.60
2017-07-24T15:15:53.685Z,16.60
2017-07-24T15:18:21.234Z,16.50
2017-07-24T15:20:48.845Z,16.60
2017-07-24T15:23:17.157Z,16.60
2017-07-24T15:25:44.988Z,16.60
2017-07-24T15:28:13.358Z,16.80
2017-07-24T15:30:40.903Z,16.80
2017-07-24T15:33:08.458Z,16.90
2017-07-24T15:35:36.029Z,16.90
2017-07-24T15:38:03.577Z,17.00
2017-07-24T15:40:31.430Z,17.10
2017-07-24T15:42:59.085Z,17.30
2017-07-24T15:45:26.673Z,17.40
2017-07-24T15:47:54.222Z,17.60
2017-07-24T15:50:21.804Z,17.70
2017-07-24T15:52:49.357Z,17.60
2017-07-24T15:55:16.902Z,17.80
2017-07-24T15:57:44.474Z,17.90
2017-07-24T16:00:12.026Z,17.90
2017-07-24T16:02:39.569Z,18.00
2017-07-24T16:05:07.222Z,17.80
2017-07-24T16:07:34.764Z,17.70
2017-07-24T16:10:02.309Z,17.80
2017-07-24T16:12:30.661Z,17.90
2017-07-24T16:14:58.212Z,17.90
2017-07-24T16:17:25.764Z,17.90
2017-07-24T16:19:53.338Z,17.90
2017-07-24T16:22:20.884Z,17.80
2017-07-24T16:24:48.433Z,17.90
2017-07-24T16:27:16.570Z,17.80
2017-07-24T16:29:44.121Z,17.80
2017-07-24T16:32:12.500Z,18.00
2017-07-24T16:34:40.095Z,17.90
2017-07-24T16:37:07.681Z,18.00
2017-07-24T16:39:35.248Z,18.00
2017-07-24T16:42:02.841Z,18.10
2017-07-24T16:44:30.411Z,17.90
2017-07-24T16:46:57.967Z,17.90
2017-07-24T16:49:25.622Z,18.00
2017-07-24T16:51:53.942Z,18.10
2017-07-24T16:54:21.537Z,18.10
2017-07-24T16:56:49.130Z,18.00
2017-07-24T16:59:16.706Z,18.10
2017-07-24T17:01:44.261Z,18.30
2017-07-24T17:04:11.855Z,18.20
2017-07-24T17:06:39.458Z,18.30
2017-07-24T17:09:07.069Z,18.40
2017-07-24T17:11:35.178Z,18.40
2017-07-24T17:14:02.731Z,18.30
2017-07-24T17:16:30.505Z,18.30
2017-07-24T17:19:13.384Z,18.30
2017-07-24T17:27:50.781Z,18.40
2017-07-24T17:30:19.521Z,18.40
2017-07-24T17:32:54.107Z,18.40
2017-07-24T17:35:21.760Z,18.50
2017-07-24T17:40:39.097Z,18.30
2017-07-24T17:43:06.646Z,18.20
2017-07-24T17:45:34.963Z,18.00
2017-07-24T17:48:02.622Z,18.00
2017-07-24T17:50:30.178Z,18.10
2017-07-24T17:52:57.732Z,18.00
2017-07-24T17:55:28.986Z,17.90
2017-07-24T17:57:56.582Z,17.80
2017-07-24T18:00:24.129Z,17.80
2017-07-24T18:02:51.797Z,17.70
2017-07-24T18:05:19.351Z,17.60
2017-07-24T18:07:46.895Z,17.60
2017-07-24T18:10:14.509Z,17.60
2017-07-24T18:12:42.816Z,17.50
2017-07-24T18:15:10.354Z,17.50
2017-07-24T18:17:38.734Z,17.60
2017-07-24T18:20:07.041Z,17.50
2017-07-24T18:22:34.577Z,17.50
2017-07-24T18:25:02.141Z,17.50
2017-07-24T18:27:29.690Z,17.50
2017-07-24T18:29:57.969Z,17.60
2017-07-24T18:32:25.580Z,17.50
2017-07-24T18:34:53.186Z,17.50
2017-07-24T18:37:20.754Z,17.30
2017-07-24T18:39:48.334Z,17.30
2017-07-24T18:42:15.877Z,17.20
2017-07-24T18:44:43.421Z,17.10
2017-07-24T18:47:10.997Z,17.00
2017-07-24T18:49:38.550Z,17.00
2017-07-24T18:52:06.197Z,16.80
2017-07-24T18:54:37.822Z,16.60
2017-07-24T18:57:05.450Z,16.60
2017-07-24T18:59:33.074Z,16.50
2017-07-24T19:02:00.673Z,16.50
2017-07-24T19:04:29.786Z,16.30
2017-07-24T19:06:59.366Z,15.70
2017-07-24T19:09:26.962Z,15.10
2017-07-24T19:11:54.552Z,14.80
2017-07-24T19:14:22.110Z,14.80
2017-07-24T19:16:49.760Z,14.60
2017-07-24T19:19:17.377Z,14.60
2017-07-24T19:21:44.925Z,14.50
2017-07-24T19:24:12.540Z,14.60
2017-07-24T19:26:40.113Z,14.60
2017-07-24T19:29:07.668Z,14.60
2017-07-24T19:31:35.386Z,14.60
2017-07-24T19:34:02.970Z,14.60
2017-07-24T19:36:30.535Z,14.80
2017-07-24T19:38:58.169Z,14.70
2017-07-24T19:41:25.855Z,14.70
2017-07-24T19:46:28.281Z,14.70
2017-07-24T19:48:55.842Z,14.70
2017-07-24T19:51:23.401Z,14.80
2017-07-24T19:53:51.748Z,14.60
2017-07-24T19:56:19.330Z,14.60
2017-07-24T19:58:46.886Z,14.50
2017-07-24T20:01:14.666Z,14.60
2017-07-24T20:03:42.213Z,14.60
2017-07-24T20:06:10.522Z,14.60
2017-07-24T20:08:38.111Z,14.60
2017-07-24T20:11:05.661Z,14.50
2017-07-24T20:13:33.214Z,14.40
2017-07-24T20:16:00.806Z,14.50
2017-07-24T20:18:28.353Z,14.30
2017-07-24T20:20:55.907Z,14.20
2017-07-24T20:23:23.638Z,14.10
2017-07-24T20:25:51.190Z,14.00
2017-07-24T20:28:18.737Z,14.00
2017-07-24T20:30:46.361Z,13.90
2017-07-24T20:33:14.007Z,13.80
2017-07-24T20:35:43.266Z,13.70
2017-07-24T20:38:16.810Z,13.70
2017-07-24T20:40:44.378Z,13.50
2017-07-24T20:43:11.972Z,13.60
2017-07-24T20:45:39.776Z,13.50
2017-07-24T20:48:07.338Z,13.60
2017-07-24T20:50:34.947Z,13.60
2017-07-24T20:53:02.517Z,13.50
2017-07-24T20:55:30.114Z,13.40
2017-07-24T20:57:57.817Z,13.40
2017-07-24T21:00:25.404Z,13.40
2017-07-24T21:02:53.739Z,13.30
2017-07-24T21:05:21.357Z,13.30
2017-07-24T21:07:49.170Z,13.20
2017-07-24T21:12:49.654Z,13.30
2017-07-24T21:15:17.229Z,13.30
2017-07-24T21:17:45.554Z,13.20
2017-07-24T21:20:13.199Z,13.10
2017-07-24T21:22:40.826Z,13.20
2017-07-24T21:25:09.241Z,13.10
2017-07-24T21:27:36.793Z,13.10
2017-07-24T21:30:04.421Z,13.10
2017-07-24T21:32:32.733Z,13.00
2017-07-24T21:35:00.609Z,12.90
2017-07-24T21:37:28.234Z,12.90
2017-07-24T21:39:55.781Z,12.90
2017-07-24T21:42:24.088Z,13.00
2017-07-24T21:44:51.649Z,13.00
2017-07-24T21:47:19.192Z,13.00
2017-07-24T21:49:46.739Z,12.90
2017-07-24T21:52:14.358Z,13.00
2017-07-24T21:54:41.901Z,12.90
2017-07-24T21:57:09.441Z,12.80
2017-07-24T21:59:37.017Z,12.80
2017-07-24T22:02:04.567Z,12.80
2017-07-24T22:04:32.112Z,12.90
2017-07-24T22:06:59.689Z,13.00
2017-07-24T22:09:27.242Z,13.00
2017-07-24T22:11:54.776Z,13.00
2017-07-24T22:14:22.390Z,13.10
2017-07-24T22:16:49.933Z,13.20
2017-07-24T22:19:17.472Z,13.20
2017-07-24T22:21:45.044Z,13.30
2017-07-24T22:24:12.604Z,13.40
2017-07-24T22:26:40.153Z,13.30
2017-07-24T22:29:07.732Z,13.30
2017-07-24T22:31:35.277Z,13.30
2017-07-24T22:34:02.821Z,13.40
2017-07-24T22:36:30.896Z,13.50
2017-07-24T22:38:58.444Z,13.50
2017-07-24T22:41:25.998Z,13.50
2017-07-24T22:43:53.608Z,13.60
2017-07-24T22:46:21.161Z,13.70
2017-07-24T22:48:48.710Z,13.60
2017-07-24T22:51:16.310Z,13.70
2017-07-24T22:53:43.862Z,13.60
2017-07-24T22:56:11.411Z,13.60
2017-07-24T22:58:39.023Z,13.60
2017-07-24T23:01:06.617Z,13.60
2017-07-24T23:03:34.162Z,13.60
2017-07-24T23:06:01.737Z,13.50
2017-07-24T23:08:29.325Z,13.50
2017-07-24T23:10:56.868Z,13.50
2017-07-24T23:13:24.437Z,13.50
2017-07-24T23:15:51.986Z,13.50
2017-07-24T23:18:19.537Z,13.60
2017-07-24T23:20:47.148Z,13.60
2017-07-24T23:23:14.690Z,13.50
2017-07-24T23:25:42.225Z,13.50
2017-07-24T23:28:09.806Z,13.60
2017-07-24T23:30:37.349Z,13.50
2017-07-24T23:33:04.888Z,13.50
2017-07-24T23:35:32.456Z,13.40
2017-07-24T23:38:00.309Z,13.40
2017-07-24T23:40:27.856Z,13.40
2017-07-24T23:42:56.229Z,13.40
2017-07-24T23:45:24.533Z,13.50
2017-07-24T23:47:52.081Z,13.40
2017-07-24T23:50:19.689Z,13.50
2017-07-24T23:52:47.237Z,13.50
2017-07-24T23:55:14.781Z,13.40
2017-07-24T23:57:42.362Z,13.40
